Aireys Inlet, Victoria

6:23 PM EST on August 28, 2014 (GMT +1000)
IVICTORI201 | Change Station
CLOSE
Current Station
Personal Weather Station
Location: Lorne, VICTORIA
Elevation: 36 ft
Nearby Weather Stations

Elev 36 ft 38.55 °S, 143.99 °E | Updated 8 minutes ago

Clear
Clear
54.8 °F
Feels Like 54.8 °F
N
0.0
Wind Variable Wind from WNW
Gusts 1.0 mph

Today
High -- | Low -- °F
--% Chance of Precip.
Yesterday
High -- | Low -- °F
Precip. -- in
6:52 AM 5:58 PM
Waxing Crescent, 7% visible
Pressure 30.33 in
Visibility 6.2 miles
Clouds
Dew Point 51 °F
Humidity 88%
Rainfall 0.01 in
Snow Depth Not available.
UV Not available.
Pollen Not available.
Air Quality Not available.
Flu Activity Not available.
METAR YMAV 280800Z AUTO 05003KT 9999 // NCD 13/09 Q1027

More Conditions Fewer Conditions

Pressure 30.33 in
Visibility 6.2 miles
Clouds
Dew Point 51 °F
Humidity 88%
Rainfall 0.01 in
Snow Depth Not available.
UV Not available.
Pollen Not available.
Air Quality Not available.
Flu Activity Not available.
METAR YMAV 280800Z AUTO 05003KT 9999 // NCD 13/09 Q1027

More Conditions Fewer Conditions

10-Day Weather Forecast

Almanac

Astronomy

Aug. 28, 2014 Rise Set
Actual Time 6:52 AM EST 5:58 PM EST
Civil Twilight 6:25 AM EST 6:24 PM EST
Nautical Twilight 5:54 AM EST 6:55 PM EST
Astronomical Twilight 5:24 AM EST 7:26 PM EST
Moon 7:51 AM EST 8:29 PM EST
Length of Visible Light 11h 59m
Length of Day
11h 05m
Tomorrow will be 2m 19s longer.
Waxing Crescent, 7% of the Moon is Illuminated
Today
Waxing Crescent
Sep 2
First Quarter
Sep 8
Full
Sep 15
Last Quarter
Sep 24
New

Yesterday's Extremes

Country Highs Country Lows

Community

WunderPhotos

Upload Photos

1,747,918 photos uploaded!

Nearby

Snow Depth

Not available.

Earthquake Activity

City Distance Mag. Time & Date
No recent earthquake activity has been reported nearby.
Minimum magnitude displayed is 2.5.

Coastal Water Temperatures

Place Temperature
No Stations Reporting

Nearby Weather Stations